Flight Track Log - Related Links

Times and Time Zones

All times are in EDT time to prevent confusion due to time zone crossing. See the N539UA flight status page for this flight to view local times or setup timezone preferences in your user account.

Time Position Orientation Groundspeed Altitude Reporting Facility
EDT Latitude Longitude Course Direction KTS MPH feet Rate Location/Type
Sat 10:09:39 AM 41.9500 -87.9167 270° West 165 190 1,900  Level Chicago TRACON
Sat 10:10:33 AM 41.9500 -87.9833 270° West 231 266 2,800 1,684 Climbing Chicago TRACON
Sat 10:11:33 AM 41.9500 -88.0833 270° West 259 298 5,100 2,353 Climbing Chicago TRACON
Sat 10:12:00 AM 41.9667 -88.3549 270° West  Level FlightAware Approximate
Sat 10:12:15 AM 41.9456 -88.1403 264° West 247 284 6,800  Level Chicago Center
Sat 10:13:00 AM 41.9667 -88.5066 270° West  Level FlightAware Approximate
Sat 10:13:17 AM 41.9456 -88.2397 270° West 266 306 9,800  Level Chicago Center
Sat 10:14:00 AM 41.9668 -88.6582 270° West  Level FlightAware Approximate
Sat 10:14:18 AM 41.9469 -88.3411 271° West 273 314 12,400  Level Chicago Center
Sat 10:15:20 AM 41.9683 -88.4669 283° West 299 344 13,800 1,742 Climbing Chicago Center
Sat 10:16:22 AM 42.0022 -88.5819 292° West 328 377 16,000 1,951 Climbing Chicago Center
Sat 10:17:23 AM 42.0369 -88.6983 292° West 336 387 17,800 1,756 Climbing Chicago Center
Sat 10:18:25 AM 42.0536 -88.8283 280° West 354 407 19,600 1,902 Climbing Chicago Center
Sat 10:19:26 AM 42.0639 -88.9603 276° West 356 410 21,700 1,756 Climbing Chicago Center
Sat 10:20:28 AM 42.0750 -89.0967 276° West 360 414 23,200 1,500 Climbing Chicago Center
Sat 10:21:30 AM 42.0850 -89.2364 276° West 372 428 24,800 1,317 Climbing Chicago Center
Sat 10:22:31 AM 42.0956 -89.4053 275° West 384 442 25,900 1,073 Climbing Chicago Center
Sat 10:23:33 AM 42.1283 -89.5561 286° West 417 480 27,000 1,161 Climbing Chicago Center
Sat 10:24:35 AM 42.1761 -89.7081 293° West 437 503 28,300 1,113 Climbing Chicago Center
Sat 10:25:37 AM 42.2228 -89.8603 293° West 437 503 29,300 878 Climbing Chicago Center
Sat 10:26:38 AM 42.2681 -90.0039 293° West 441 507 30,100 976 Climbing Chicago Center
Sat 10:27:40 AM 42.3144 -90.1556 293° West 442 509 31,300 919 Climbing Chicago Center
Sat 10:28:42 AM 42.3692 -90.3372 292° West 438 504 32,000 532 Climbing Chicago Center
Sat 10:29:44 AM 42.4147 -90.4889 292° West 439 505 32,400 683 Climbing Chicago Center
Sat 10:30:45 AM 42.4594 -90.6378 292° West 433 498 33,400 780 Climbing Chicago Center
Sat 10:31:47 AM 42.5031 -90.7814 292° West 420 483 34,000 290 Climbing Chicago Center
Sat 10:32:49 AM 42.5464 -90.9294 292° West 423 487 34,000  Level Chicago Center
Sat 10:33:51 AM 42.5986 -91.1089 292° West 431 496 34,000  Level Chicago Center
Sat 10:34:52 AM 42.6425 -91.2608 291° West 434 499 34,000  Level Chicago Center
Sat 10:35:54 AM 42.6867 -91.4142 291° West 437 503 34,000  Level Chicago Center
Sat 10:36:56 AM 42.7333 -91.5786 291° West 428 493 34,000  Level Chicago Center
Sat 10:37:58 AM 42.7764 -91.7286 291° West 426 490 34,000  Level Chicago Center
Sat 10:38:59 AM 42.8175 -91.8739 291° West 426 490 34,000  Level Chicago Center
Sat 10:40:01 AM 42.8586 -92.0214 291° West 420 483 34,000  Level Chicago Center
Sat 10:40:24 AM 42.8756 -92.0808 291° West 420 483 34,000  Level Minneapolis Center
Sat 10:41:03 AM 42.8994 -92.1686 290° West 420 483 34,000  Level Chicago Center
Sat 10:42:05 AM 42.9408 -92.3169 291° West 421 484 34,000  Level Chicago Center
Sat 10:42:28 AM 42.9569 -92.3769 290° West 420 483 34,000  Level Minneapolis Center
Sat 10:43:29 AM 43.0058 -92.5544 291° West 420 483 34,000  Level Minneapolis Center
Sat 10:44:08 AM 43.0306 -92.6419 291° West 420 483 34,000  Level Chicago Center
Sat 10:44:31 AM 43.0481 -92.7006 292° West 419 482 34,000  Level Minneapolis Center
Sat 10:45:33 AM 43.0878 -92.8514 290° West 423 487 34,000  Level Minneapolis Center
Sat 10:46:35 AM 43.1286 -92.9978 291° West 417 480 34,000  Level Minneapolis Center
Sat 10:47:36 AM 43.1678 -93.1456 290° West 416 479 34,000  Level Minneapolis Center
Sat 10:48:38 AM 43.2069 -93.2922 290° West 415 478 34,000  Level Minneapolis Center
Sat 10:49:40 AM 43.2536 -93.4694 290° West 416 479 34,000  Level Minneapolis Center
Sat 10:50:41 AM 43.2936 -93.6169 290° West 416 479 34,000  Level Minneapolis Center
Sat 10:51:43 AM 43.3325 -93.7667 290° West 418 481 34,000  Level Minneapolis Center
Sat 10:52:57 AM 43.3725 -93.9156 290° West 420 483 34,000  Level Minneapolis Center
Sat 10:53:59 AM 43.4181 -94.0936 289° West 416 479 34,000  Level Minneapolis Center
Sat 10:55:01 AM 43.4631 -94.2675 290° West 419 482 34,000  Level Minneapolis Center
Sat 10:56:03 AM 43.5003 -94.4206 289° West 420 483 34,000  Level Minneapolis Center
Sat 10:57:05 AM 43.5397 -94.5731 290° West 422 486 34,000  Level Minneapolis Center
Sat 10:58:06 AM 43.5703 -94.6961 289° West 424 488 34,000  Level Minneapolis Center
Sat 10:59:08 AM 43.6175 -94.8817 289° West 426 490 34,000  Level Minneapolis Center
Sat 11:00:10 AM 43.6653 -95.0644 290° West 423 487 34,000  Level Minneapolis Center
Sat 11:01:12 AM 43.7031 -95.2186 289° West 423 487 34,000  Level Minneapolis Center
Sat 11:02:14 AM 43.7397 -95.3719 288° West 422 486 34,000  Level Minneapolis Center
Sat 11:03:15 AM 43.7703 -95.4936 289° West 420 483 34,000  Level Minneapolis Center
Sat 11:04:17 AM 43.8142 -95.6767 288° West 419 482 34,000  Level Minneapolis Center
Sat 11:05:19 AM 43.8506 -95.8292 288° West 417 480 34,000  Level Minneapolis Center
Sat 11:06:21 AM 43.8867 -95.9819 288° West 417 480 34,000  Level Minneapolis Center
Sat 11:07:23 AM 43.9300 -96.1647 288° West 414 476 34,000  Level Minneapolis Center
Sat 11:08:24 AM 43.9656 -96.3181 288° West 413 475 34,000  Level Minneapolis Center
Sat 11:09:26 AM 44.0025 -96.4739 288° West 417 480 34,000  Level Minneapolis Center
Sat 11:10:28 AM 44.0386 -96.6303 288° West 422 486 34,000  Level Minneapolis Center
Sat 11:11:30 AM 44.0739 -96.7867 287° West 423 487 34,000  Level Minneapolis Center
Sat 11:12:31 AM 44.1097 -96.9450 288° West 428 493 34,000  Level Minneapolis Center
Sat 11:13:33 AM 44.1450 -97.1028 287° West 427 491 34,000  Level Minneapolis Center
Sat 11:14:35 AM 44.1819 -97.2611 288° West 430 495 34,000  Level Minneapolis Center
Sat 11:15:37 AM 44.2175 -97.4203 287° West 430 495 34,000  Level Minneapolis Center
Sat 11:16:39 AM 44.2597 -97.6117 287° West 431 496 34,000  Level Minneapolis Center
Sat 11:17:40 AM 44.2947 -97.7719 287° West 433 498 34,000  Level Minneapolis Center
Sat 11:18:42 AM 44.3289 -97.9339 286° West 435 501 34,000  Level Minneapolis Center
Sat 11:19:44 AM 44.3644 -98.0975 287° West 437 503 34,000  Level Minneapolis Center
Sat 11:20:46 AM 44.3981 -98.2600 286° West 438 504 34,000  Level Minneapolis Center
Sat 11:21:47 AM 44.4353 -98.4203 288° West 437 503 34,000  Level Minneapolis Center
Sat 11:22:49 AM 44.4700 -98.5853 286° West 438 504 34,000  Level Minneapolis Center
Sat 11:23:51 AM 44.5142 -98.7814 288° West 440 506 34,000  Level Minneapolis Center
Sat 11:24:53 AM 44.5469 -98.9486 285° West 442 509 34,000  Level Minneapolis Center
Sat 11:25:55 AM 44.5803 -99.1156 286° West 443 510 34,000  Level Minneapolis Center
Sat 11:26:56 AM 44.6142 -99.2842 286° West 447 514 34,000 488 Level Minneapolis Center
Sat 11:27:58 AM 44.6469 -99.4494 286° West 442 509 35,000 871 Climbing Minneapolis Center
Sat 11:29:00 AM 44.6789 -99.6097 286° West 430 495 35,800 484 Climbing Minneapolis Center
Sat 11:30:02 AM 44.7106 -99.7697 286° West 425 489 36,000 97 Climbing Minneapolis Center
Sat 11:31:04 AM 44.7422 -99.9300 286° West 423 487 36,000  Level Minneapolis Center
Sat 11:32:06 AM 44.7728 -100.0914 285° West 422 486 36,000  Level Minneapolis Center
Sat 11:33:07 AM 44.8033 -100.2500 285° West 418 481 36,000  Level Minneapolis Center
Sat 11:34:09 AM 44.8403 -100.4383 286° West 414 476 36,000  Level Minneapolis Center
Sat 11:35:11 AM 44.8697 -100.5942 285° West 411 473 36,000  Level Minneapolis Center
Sat 11:36:13 AM 44.9000 -100.7492 285° West 409 471 36,000  Level Minneapolis Center
Sat 11:37:15 AM 44.9294 -100.9047 285° West 410 472 36,000  Level Minneapolis Center
Sat 11:38:17 AM 44.9586 -101.0611 285° West 411 473 36,000  Level Minneapolis Center
Sat 11:39:19 AM 44.9881 -101.2175 285° West 411 473 36,000  Level Minneapolis Center
Sat 11:40:20 AM 45.0167 -101.3719 285° West 408 470 36,000  Level Minneapolis Center
Sat 11:41:22 AM 45.0508 -101.5564 285° West 405 466 36,000  Level Minneapolis Center
Sat 11:42:24 AM 45.0783 -101.7106 284° West 404 465 36,000  Level Minneapolis Center
Sat 11:43:26 AM 45.1006 -101.8650 282° West 402 463 36,000  Level Minneapolis Center
Sat 11:44:28 AM 45.1214 -102.0197 281° West 400 460 36,000  Level Minneapolis Center
Sat 11:45:30 AM 45.1406 -102.1739 280° West 399 459 36,000  Level Minneapolis Center
Sat 11:46:31 AM 45.1619 -102.3256 281° West 395 455 36,000  Level Minneapolis Center
Sat 11:47:33 AM 45.1822 -102.4778 281° West 394 453 36,000  Level Minneapolis Center
Sat 11:48:35 AM 45.2053 -102.6603 280° West 392 451 36,000  Level Minneapolis Center
Sat 11:49:37 AM 45.2253 -102.8103 281° West 390 449 36,000  Level Minneapolis Center
Sat 11:50:39 AM 45.2436 -102.9606 280° West 387 445 36,000  Level Minneapolis Center
Sat 11:51:49 AM 45.2644 -103.1306 280° West 386 444 36,000  Level Salt Lake Center
Sat 11:52:52 AM 45.2836 -103.2817 280° West 388 447 36,000  Level Salt Lake Center
Sat 11:53:54 AM 45.3014 -103.4314 280° West 386 444 36,000  Level Salt Lake Center
Sat 11:54:56 AM 45.3200 -103.5839 280° West 390 449 36,000  Level Salt Lake Center
Sat 11:55:58 AM 45.3417 -103.7647 280° West 389 448 36,000  Level Salt Lake Center
Sat 11:57:00 AM 45.3592 -103.9172 279° West 390 449 36,000  Level Salt Lake Center
Sat 11:58:02 AM 45.3772 -104.0744 279° West 397 457 36,000  Level Salt Lake Center
Sat 11:59:04 AM 45.3947 -104.2300 279° West 399 459 36,000  Level Salt Lake Center
Sat 12:00:06 PM 45.4114 -104.3828 279° West 395 455 36,000  Level Salt Lake Center
Sat 12:01:08 PM 45.4325 -104.5567 280° West 393 452 36,000  Level Salt Lake Center
Sat 12:02:10 PM 45.4478 -104.7031 279° West 392 451 36,000  Level Salt Lake Center
Sat 12:03:12 PM 45.4672 -104.8733 279° West 391 450 36,000  Level Salt Lake Center
Sat 12:04:14 PM 45.4828 -105.0178 279° West 388 447 36,000  Level Salt Lake Center
Sat 12:05:16 PM 45.5006 -105.1881 279° West 389 448 36,000  Level Salt Lake Center
Sat 12:06:18 PM 45.5156 -105.3322 278° West 387 445 36,000  Level Salt Lake Center
Sat 12:07:20 PM 45.5336 -105.5014 279° West 385 443 36,000  Level Salt Lake Center
Sat 12:08:22 PM 45.5475 -105.6467 278° West 386 444 36,000  Level Salt Lake Center
Sat 12:09:24 PM 45.5642 -105.8150 278° West 384 442 36,000  Level Salt Lake Center
Sat 12:10:26 PM 45.5794 -105.9586 279° West 384 442 36,000  Level Salt Lake Center
Sat 12:11:28 PM 45.5936 -106.1019 278° West 382 440 36,000  Level Salt Lake Center
Sat 12:12:30 PM 45.6092 -106.2725 277° West 387 445 36,000  Level Salt Lake Center
Sat 12:13:32 PM 45.6225 -106.4167 278° West 386 444 36,000  Level Salt Lake Center
Sat 12:14:34 PM 45.6347 -106.5811 276° West 378 435 36,000  Level Salt Lake Center
Sat 12:15:36 PM 45.6478 -106.7267 277° West 379 436 36,000  Level Salt Lake Center
Sat 12:16:38 PM 45.6650 -106.9008 278° West 391 450 36,000  Level Salt Lake Center
Sat 12:17:40 PM 45.6797 -107.0500 278° West 395 455 36,000  Level Salt Lake Center
Sat 12:18:42 PM 45.6964 -107.2303 278° West 405 466 36,000  Level Salt Lake Center
Sat 12:19:44 PM 45.7097 -107.3819 277° West 403 464 36,000  Level Salt Lake Center
Sat 12:20:46 PM 45.7253 -107.5581 277° West 403 464 36,000  Level Salt Lake Center
Sat 12:21:48 PM 45.7372 -107.7111 276° West 404 465 36,000  Level Salt Lake Center
Sat 12:22:50 PM 45.7519 -107.8911 277° West 409 471 36,000  Level Salt Lake Center
Sat 12:23:52 PM 45.7647 -108.0431 277° West 404 465 36,000  Level Salt Lake Center
Sat 12:24:54 PM 45.7783 -108.2206 276° West 402 463 36,000  Level Salt Lake Center
Sat 12:25:56 PM 45.7903 -108.3725 276° West 401 461 36,000  Level Salt Lake Center
Sat 12:26:58 PM 45.8053 -108.5456 277° West 396 456 36,000  Level Salt Lake Center
Sat 12:28:00 PM 45.8114 -108.6989 273° West 400 460 36,000  Level Salt Lake Center
Sat 12:29:02 PM 45.8169 -108.8722 273° West 392 451 36,000  Level Salt Lake Center
Sat 12:30:04 PM 45.8214 -109.0225 272° West 394 453 36,000  Level Salt Lake Center
Sat 12:31:06 PM 45.8261 -109.1989 272° West 397 457 36,000  Level Salt Lake Center
Sat 12:32:08 PM 45.8303 -109.3483 272° West 394 453 36,000  Level Salt Lake Center
Sat 12:33:10 PM 45.8336 -109.4994 272° West 396 456 36,000  Level Salt Lake Center
Sat 12:34:12 PM 45.8372 -109.6742 272° West 394 453 36,000  Level Salt Lake Center
Sat 12:35:14 PM 45.8400 -109.8244 272° West 394 453 36,000  Level Salt Lake Center
Sat 12:36:16 PM 45.8431 -110.0019 271° West 398 458 36,000  Level Salt Lake Center
Sat 12:37:18 PM 45.8461 -110.1531 272° West 397 457 36,000  Level Salt Lake Center
Sat 12:38:20 PM 45.8486 -110.3314 271° West 399 459 36,000  Level Salt Lake Center
Sat 12:39:22 PM 45.8506 -110.4839 271° West 400 460 36,000  Level Salt Lake Center
Sat 12:40:24 PM 45.8531 -110.6472 271° West 399 459 36,000  Level Salt Lake Center
Sat 12:41:26 PM 45.8558 -110.8083 271° West 405 466 36,000  Level Salt Lake Center
Sat 12:42:28 PM 45.8572 -110.9719 271° West 411 473 36,000  Level Salt Lake Center
Sat 12:43:30 PM 45.8603 -111.1642 271° West 416 479 36,000  Level Salt Lake Center
Sat 12:44:32 PM 45.8608 -111.3269 270° West 420 483 36,000  Level Salt Lake Center
Sat 12:45:34 PM 45.8606 -111.4908 270° West 416 479 36,000  Level Salt Lake Center
Sat 12:46:36 PM 45.8608 -111.6564 270° West 415 478 36,000  Level Salt Lake Center
Sat 12:47:37 PM 45.8614 -111.8544 270° West 415 478 36,000  Level Salt Lake Center
Sat 12:48:39 PM 45.8608 -112.0194 270° West 415 478 36,000  Level Salt Lake Center
Sat 12:49:41 PM 45.8619 -112.1842 271° West 413 475 36,000  Level Salt Lake Center
Sat 12:50:43 PM 45.8617 -112.3497 270° West 415 478 36,000  Level Salt Lake Center
Sat 12:51:45 PM 45.8619 -112.5144 270° West 414 476 36,000  Level Salt Lake Center
Sat 12:52:47 PM 45.8628 -112.6764 270° West 408 470 36,000  Level Salt Lake Center
Sat 12:53:49 PM 45.8628 -112.8414 270° West 413 475 36,000  Level Salt Lake Center
Sat 12:54:50 PM 45.8622 -113.0386 270° West 412 474 36,000  Level Salt Lake Center
Sat 12:55:52 PM 45.8614 -113.2058 270° West 418 481 36,000  Level Salt Lake Center
Sat 12:56:54 PM 45.8608 -113.3700 270° West 414 476 36,000  Level Salt Lake Center
Sat 12:57:56 PM 45.8600 -113.5361 270° West 416 479 36,000  Level Salt Lake Center
Sat 12:58:58 PM 45.8606 -113.6992 270° West 413 475 36,000  Level Salt Lake Center
Sat 01:00:00 PM 45.8586 -113.8656 269° West 416 479 36,000  Level Salt Lake Center
Sat 01:01:01 PM 45.8569 -114.0317 269° West 418 481 36,000  Level Salt Lake Center
Sat 01:02:03 PM 45.8558 -114.1969 270° West 416 479 36,000  Level Salt Lake Center
Sat 01:03:05 PM 45.8531 -114.3983 269° West 419 482 36,000  Level Salt Lake Center
Sat 01:04:07 PM 45.8503 -114.5719 269° West 423 487 36,000  Level Salt Lake Center
Sat 01:04:35 PM 45.8483 -114.6486 268° West 419 482 36,000  Level Seattle Center
Sat 01:05:36 PM 45.8464 -114.8128 269° West 421 484 36,000  Level Seattle Center
Sat 01:06:37 PM 45.8428 -114.9719 268° West 419 482 36,000  Level Seattle Center
Sat 01:07:38 PM 45.8397 -115.1622 269° West 426 490 36,000  Level Seattle Center
Sat 01:08:14 PM 45.8369 -115.2697 268° West 426 490 36,000  Level Salt Lake Center
Sat 01:09:16 PM 45.8333 -115.4303 268° West 424 488 36,000  Level Salt Lake Center
Sat 01:09:40 PM 45.8317 -115.4897 268° West 424 488 36,000  Level Seattle Center
Sat 01:10:42 PM 45.8278 -115.6600 268° West 426 490 36,000  Level Seattle Center
Sat 01:11:43 PM 45.8233 -115.8269 268° West 422 486 36,000  Level Seattle Center
Sat 01:12:44 PM 45.8183 -115.9958 268° West 423 487 36,000  Level Seattle Center
Sat 01:13:45 PM 45.8133 -116.1644 268° West 425 489 36,000  Level Seattle Center
Sat 01:14:46 PM 45.8083 -116.3333 268° West 425 489 36,000  Level Seattle Center
Sat 01:15:47 PM 45.8017 -116.5372 267° West 427 491 36,000  Level Seattle Center
Sat 01:16:48 PM 45.7953 -116.7078 267° West 428 493 36,000  Level Seattle Center
Sat 01:17:49 PM 45.7900 -116.8767 267° West 426 490 36,000  Level Seattle Center
Sat 01:18:50 PM 45.7833 -117.0469 267° West 428 493 36,000  Level Seattle Center
Sat 01:19:51 PM 45.7767 -117.2175 267° West 429 494 36,000  Level Seattle Center
Sat 01:20:52 PM 45.7700 -117.3875 267° West 429 494 36,000  Level Seattle Center
Sat 01:21:53 PM 45.7636 -117.5583 267° West 429 494 36,000  Level Seattle Center
Sat 01:22:54 PM 45.7556 -117.7281 266° West 429 494 36,000  Level Seattle Center
Sat 01:23:55 PM 45.7489 -117.8989 267° West 430 495 36,000 -492 Level Seattle Center
Sat 01:24:56 PM 45.7403 -118.0689 266° West 429 494 35,000 -1,033 Descending Seattle Center
Sat 01:25:57 PM 45.7322 -118.2369 266° West 426 490 33,900 -492 Descending Seattle Center
Sat 01:26:58 PM 45.7244 -118.4078 266° West 430 495 34,000 49 Climbing Seattle Center
Sat 01:28:00 PM 45.7142 -118.5983 266° West 430 495 34,000  Level Seattle Center
Sat 01:29:01 PM 45.7053 -118.7683 266° West 431 496 34,000  Level Seattle Center
Sat 01:30:02 PM 45.6956 -118.9383 265° West 431 496 34,000  Level Seattle Center
Sat 01:31:03 PM 45.6786 -119.1083 262° West 434 499 34,000  Level Seattle Center
Sat 01:32:04 PM 45.6581 -119.2753 260° West 431 496 34,000  Level Seattle Center
Sat 01:33:05 PM 45.6389 -119.4439 261° West 433 498 34,000  Level Seattle Center
Sat 01:34:06 PM 45.6139 -119.6453 260° West 433 498 34,000  Level Seattle Center
Sat 01:35:07 PM 45.5931 -119.8117 260° West 431 496 34,000 -787 Level Seattle Center
Sat 01:36:08 PM 45.5717 -119.9769 260° West 429 494 32,400 -1,475 Descending Seattle Center
Sat 01:37:09 PM 45.5517 -120.1378 260° West 418 481 31,000 -1,475 Descending Seattle Center
Sat 01:38:10 PM 45.5308 -120.2989 260° West 419 482 29,400 -1,561 Descending Seattle Center
Sat 01:39:12 PM 45.5161 -120.4531 262° West 402 463 27,800 -1,463 Descending Seattle Center
Sat 01:40:13 PM 45.5206 -120.6100 272° West 397 457 26,400 -1,525 Descending Seattle Center
Sat 01:41:14 PM 45.5228 -120.7625 271° West 394 453 24,700 -2,311 Descending Seattle Center
Sat 01:42:15 PM 45.5256 -120.9364 271° West 374 430 21,700 -2,557 Descending Seattle Center
Sat 01:43:16 PM 45.5272 -121.0772 271° West 364 419 19,500 -2,311 Descending Seattle Center
Sat 01:44:17 PM 45.5278 -121.2147 270° West 353 406 17,000 -2,653 Descending Seattle Center
Sat 01:44:51 PM 45.5303 -121.2981 272° West 345 397 15,300 -2,323 Descending Seattle Center
Sat 01:45:19 PM 45.5281 -121.3475 266° West 342 394 14,600 -2,082 Descending Seattle Center
Sat 01:45:40 PM 45.5311 -121.4031 275° West 332 382 13,600 -2,459 Descending Seattle Center
Sat 01:46:20 PM 45.5292 -121.4783 268° West 336 387 12,100 -2,361 Descending Seattle Center
Sat 01:46:41 PM 45.5303 -121.5333 272° West 329 379 11,200 -1,770 Descending Seattle Center
Sat 01:47:21 PM 45.5286 -121.6047 268° West 327 376 10,300 -1,500 Descending Seattle Center
Sat 01:47:41 PM 45.5297 -121.6544 272° West 294 338 9,700 -1,377 Descending Seattle Center
Sat 01:48:22 PM 45.5250 -121.7194 264° West 301 346 8,900 -1,475 Descending Seattle Center
Sat 01:48:42 PM 45.5267 -121.7733 273° West 282 325 8,200 -1,082 Descending Seattle Center
Sat 01:49:23 PM 45.5214 -121.8306 263° West 287 330 7,800 -689 Descending Seattle Center
Sat 01:49:43 PM 45.5233 -121.8828 273° West 272 313 7,500 -787 Descending Seattle Center
Sat 01:50:24 PM 45.5214 -121.9483 268° West 274 315 7,000 -471 Descending Seattle Center
Sat 01:51:25 PM 45.5194 -122.0556 269° West 271 312 6,700 -585 Descending Seattle Center
Sat 01:52:27 PM 45.5197 -122.1528 270° West 255 293 5,800 -1,024 Descending Seattle Center
Sat 01:53:28 PM 45.5172 -122.2417 268° West 238 274 4,600 -1,131 Descending Seattle Center
Sat 01:54:29 PM 45.5186 -122.3289 271° West 225 259 3,500 -1,082 Descending Seattle Center

Login

Don't have an account? Register now (free) for customized features, flight alerts, and more!